首页
METAR-TAF:

METAR-TAF

机场 :

水牛城, 紐約州, 美国

纬度: 42-56-27N, 经度: 078-44-09W, 海拔: 220米

当前天气观测

该预报发布于1小时和7分钟前的18:54 UTC
风速11节,风向西转西北
温度 -2°C
湿度 50%
气压 1029 hPa
能見度: 16.1公里
少量云层高于2200英尺
少量云层高于3500英尺
多云层高于4500英尺

METAR: KBUF 191854Z 29011KT 10SM FEW022 FEW035 BKN045 M02/M11 A3038 RMK AO2 SNE24 SLP297 SHSN DSNT ALQDS P0000 T10171111

时间: 15:01 (20:01 UTC)

预报

该预报发布于2小时和16分钟前的17:45 UTC
预报有效从19日的 18点(UTC)到 20日的 18点(UTC)
风速13节,风向西转西北
能見度: 9.7公里
散云层高于2500英尺
阴天层高于3500英尺
小雪
从 19日的 1900点(UTC)
风速12节,风向西转西北,有时为19节阵风
能見度: 10公里
多云层高于3500英尺
从 20日的 0100点(UTC)
风速12节,风向西
能見度: 10公里
散云层高于8000英尺
从 20日的 1200点(UTC)
风速10节,风向西转西北
能見度: 10公里
多云层高于2500英尺
小阵雪

TAF: KBUF 191745Z 1918/2018 29013KT 6SM -SN SCT025 OVC035 FM191900 30012G19KT P6SM BKN035 FM200100 27012KT P6SM SCT080 FM201200 30010KT P6SM -SHSN BKN025

超过4000个机场的气象观测和天气预报(METAR&TAF报告)。

可查询的气象台以黄色和红色小点在地图上表示。

将鼠标移到小点上方,可查看气象台名称。

然后点击查看天气观测和预报。

如需切换地图:点击带黑十字的绿色按钮放大地图;点击带横线的绿色按钮缩小地图;或者点击绿色箭头查看邻近地区的地图。


METAR-TAF: